Aérodrome :
LOGIN :

S'inscrire | Disclaimer

   EN    FR    IT 

 










Légende :    VFR   VFR Marginal   IFR   IFR Intensif   IFR Très Intensif
Visi : 
Plafond : 
>= 8 km
>= 3000ft
5 à 8 km
1000 à 3000 ft
1500m à 5 km
500 à 1000 ft
800 à 1500m
200 à 500 ft
< 800m
< 200 ft
Symboles :   Orages  Brouillard  Fortes neiges  Fortes précipitations  Vent > 20 kt
SIGMETs :   Divers  Orages  Givrage  Turbulence  Onde Orograph.  Cendres Volcan.






- Altitude de l'aérodrome : 374 ft
- Code IATA : LIS


LPPT - Lisboa Portela

DERNIER METAR :
  • 161130Z 35010KT 280V030 9999 FEW035 25/13 Q1019

METARs EXPIRÉS :
  • 161100Z 33008KT 260V050 9999 FEW034 23/13 Q1019
  • 161030Z 32008KT 270V010 9999 FEW034 23/14 Q1019
  • 161000Z 35009KT 300V020 9999 FEW028 22/14 Q1019
  • 160930Z 34011KT 310V020 9999 FEW026 21/13 Q1019
  • 160900Z 33007KT 300V360 9999 FEW024 21/14 Q1019
  • 160830Z 33007KT 290V360 9999 FEW018 21/15 Q1020
  • 160800Z 35008KT 290V020 9999 FEW018 19/14 Q1020
  • 160730Z 34008KT 310V020 9999 FEW014 19/15 Q1020
  • 160700Z 34008KT 320V020 9999 FEW012 18/15 Q1020

TAF TAF LPPT
Valide du 16 à 12h jusqu'au 17 à 18h UTC


161100Z 1612/1718 32007KT CAVOK
BECMG 1614/1616 32013KT
BECMG 1700/1702 34007KT
TEMPO 1702/1707 9999 SCT010
BECMG 1709/1711 VRB02KT
BECMG 1714/1716 32010KT



MET'MAP, la Météo Aéronautique d'un coup d'oeil ! - Copyright ORBIFLY Décembre 2007 - Disclaimer

ORBIFLY MET'MAP TEAM :

Programmation & Développement : Alexandra Zaïnal
Sur une idée originale de : Baudouin d'Aumeries
Soutien technique & logistique : Manuel Goepfert
Assistance : Marc-Olivier Méhu




SOURCES & CREDITS :

   NOAA